Time,TemperatureF,DewpointF,PressureIn,WindDirection,WindDirectionDegrees,WindSpeedMPH,WindSpeedGustMPH,Humidity,HourlyPrecipIn,Conditions,Clouds,dailyrainin,SoftwareType,DateUTC
2013-11-03 00:01:00,43.8,30.4,29.88,SSE,163,7.0,11.0,59,0.00,,RA,0.01,VWS V14.01,2013-11-03 05:01:00,
2013-11-03 00:06:00,43.7,30.3,29.88,South,176,11.0,13.0,59,0.00,,RA,0.00,VWS V14.01,2013-11-03 05:06:00,
2013-11-03 00:11:00,43.6,30.2,29.88,SSE,157,9.0,13.0,59,0.00,,RA,0.00,VWS V14.01,2013-11-03 05:11:00,
2013-11-03 00:16:00,43.5,30.1,29.86,SSE,159,11.0,13.0,59,0.00,,RA,0.00,VWS V14.01,2013-11-03 05:16:00,
2013-11-03 00:21:00,43.3,30.0,29.86,South,183,11.0,14.0,59,0.00,,RA,0.00,VWS V14.01,2013-11-03 05:21:00,
2013-11-03 00:26:00,43.2,30.3,29.86,South,173,9.0,15.0,60,0.00,,RA,0.00,VWS V14.01,2013-11-03 05:26:00,
2013-11-03 00:31:00,43.1,30.2,29.84,South,169,4.0,16.0,60,0.00,,RA,0.00,VWS V14.01,2013-11-03 05:31:00,
2013-11-03 00:36:00,43.0,30.1,29.84,SSE,166,8.0,15.0,60,0.00,,RA,0.00,VWS V14.01,2013-11-03 05:36:00,
2013-11-03 00:41:00,42.9,30.0,29.84,SSE,153,7.0,15.0,60,0.00,,RA,0.00,VWS V14.01,2013-11-03 05:41:00,
2013-11-03 00:46:00,42.8,30.3,29.84,South,171,11.0,12.0,61,0.00,,RA,0.00,VWS V14.01,2013-11-03 05:46:00,
2013-11-03 00:51:00,42.8,30.3,29.84,SSE,158,10.0,14.0,61,0.00,,RA,0.00,VWS V14.01,2013-11-03 05:51:00,
2013-11-03 00:56:00,42.9,30.4,29.84,SSE,158,9.0,13.0,61,0.00,,RA,0.00,VWS V14.01,2013-11-03 05:56:00,
2013-11-03 01:01:00,43.1,30.6,29.83,South,169,12.0,17.0,61,0.00,,RA,0.00,VWS V14.01,2013-11-03 06:01:00,
2013-11-03 01:06:00,43.1,30.6,29.83,SSE,150,11.0,15.0,61,0.00,,RA,0.00,VWS V14.01,2013-11-03 06:06:00,
2013-11-03 01:11:00,43.1,30.6,29.83,South,170,9.0,13.0,61,0.00,,RA,0.00,VWS V14.01,2013-11-03 06:11:00,
2013-11-03 01:16:00,43.3,30.8,29.83,SSE,159,10.0,14.0,61,0.00,,RA,0.00,VWS V14.01,2013-11-03 06:16:00,
2013-11-03 01:21:00,43.5,31.0,29.83,SSE,167,9.0,16.0,61,0.00,,RA,0.00,VWS V14.01,2013-11-03 06:21:00,
2013-11-03 01:26:00,43.7,31.1,29.83,South,173,13.0,16.0,61,0.00,,RA,0.00,VWS V14.01,2013-11-03 06:26:00,
2013-11-03 01:31:00,43.6,31.0,29.82,SSE,167,7.0,14.0,61,0.00,,RA,0.00,VWS V14.01,2013-11-03 06:31:00,
2013-11-03 01:36:00,43.4,30.9,29.82,SSE,167,7.0,15.0,61,0.00,,RA,0.00,VWS V14.01,2013-11-03 06:36:00,
2013-11-03 01:41:00,43.3,30.8,29.82,SSE,157,12.0,18.0,61,0.00,,RA,0.00,VWS V14.01,2013-11-03 06:41:00,
2013-11-03 01:46:00,43.1,31.0,29.83,South,178,12.0,18.0,62,0.00,,RA,0.00,VWS V14.01,2013-11-03 06:46:00,
2013-11-03 01:51:00,43.0,30.9,29.83,SSE,167,13.0,14.0,62,0.00,,RA,0.00,VWS V14.01,2013-11-03 06:51:00,
2013-11-03 01:56:00,42.8,30.7,29.83,SSE,161,10.0,15.0,62,0.00,,RA,0.00,VWS V14.01,2013-11-03 06:56:00,
2013-11-03 01:01:00,42.7,31.0,29.82,South,171,9.0,13.0,63,0.00,,RA,0.00,VWS V14.01,2013-11-03 07:01:00,
2013-11-03 01:06:00,42.7,31.0,29.82,SSE,154,10.0,14.0,63,0.00,,RA,0.00,VWS V14.01,2013-11-03 07:06:00,
2013-11-03 01:11:00,42.6,30.9,29.82,South,178,11.0,14.0,63,0.00,,RA,0.00,VWS V14.01,2013-11-03 07:11:00,
2013-11-03 01:16:00,42.5,30.8,29.81,SSE,161,11.0,14.0,63,0.00,,RA,0.00,VWS V14.01,2013-11-03 07:16:00,
2013-11-03 01:20:00,42.6,30.9,29.81,South,171,10.0,18.0,63,0.00,,RA,0.00,VWS V14.01,2013-11-03 07:20:00,
2013-11-03 01:25:00,42.5,30.8,29.81,SSE,161,7.0,15.0,63,0.00,,RA,0.00,VWS V14.01,2013-11-03 07:25:00,
2013-11-03 01:30:00,42.5,30.8,29.80,South,182,10.0,14.0,63,0.00,,RA,0.00,VWS V14.01,2013-11-03 07:30:00,
2013-11-03 01:35:00,42.5,30.8,29.80,South,171,11.0,18.0,63,0.00,,RA,0.00,VWS V14.01,2013-11-03 07:35:00,
2013-11-03 01:40:00,42.7,31.0,29.80,South,182,13.0,16.0,63,0.00,,RA,0.00,VWS V14.01,2013-11-03 07:40:00,
2013-11-03 01:45:00,42.9,31.2,29.80,SSE,156,9.0,17.0,63,0.00,,RA,0.00,VWS V14.01,2013-11-03 07:45:00,
2013-11-03 01:50:00,43.3,31.2,29.80,South,174,13.0,23.0,62,0.00,,RA,0.00,VWS V14.01,2013-11-03 07:50:00,
2013-11-03 01:55:00,43.5,31.4,29.80,SSW,192,17.0,18.0,62,0.00,,RA,0.00,VWS V14.01,2013-11-03 07:55:00,
2013-11-03 02:00:00,43.5,31.4,29.79,SSE,167,12.0,20.0,62,0.00,,RA,0.00,VWS V14.01,2013-11-03 08:00:00,
2013-11-03 02:05:00,43.4,31.3,29.79,South,172,12.0,19.0,62,0.00,,RA,0.00,VWS V14.01,2013-11-03 08:05:00,
2013-11-03 02:10:00,43.1,31.4,29.79,SSE,155,11.0,18.0,63,0.00,,RA,0.00,VWS V14.01,2013-11-03 08:10:00,
2013-11-03 02:16:00,42.9,31.2,29.79,South,170,15.0,19.0,63,0.00,,RA,0.00,VWS V14.01,2013-11-03 08:16:00,
2013-11-03 02:21:00,42.8,31.1,29.79,South,171,12.0,18.0,63,0.00,,RA,0.00,VWS V14.01,2013-11-03 08:21:00,
2013-11-03 02:26:00,42.7,31.4,29.79,SSE,163,9.0,17.0,64,0.00,,RA,0.00,VWS V14.01,2013-11-03 08:26:00,
2013-11-03 02:31:00,42.7,31.4,29.78,SSE,163,12.0,20.0,64,0.00,,RA,0.00,VWS V14.01,2013-11-03 08:31:00,
2013-11-03 02:36:00,42.8,31.5,29.78,South,180,17.0,21.0,64,0.00,,RA,0.00,VWS V14.01,2013-11-03 08:36:00,
2013-11-03 02:41:00,42.9,31.6,29.78,SSE,165,11.0,21.0,64,0.00,,RA,0.00,VWS V14.01,2013-11-03 08:41:00,
2013-11-03 02:46:00,42.9,31.6,29.77,South,185,12.0,18.0,64,0.00,,RA,0.00,VWS V14.01,2013-11-03 08:46:00,
2013-11-03 02:51:00,43.1,31.8,29.77,SSE,150,10.0,18.0,64,0.00,,RA,0.00,VWS V14.01,2013-11-03 08:51:00,
2013-11-03 02:56:00,43.1,31.4,29.77,South,178,13.0,17.0,63,0.00,,RA,0.00,VWS V14.01,2013-11-03 08:56:00,
2013-11-03 03:01:00,43.3,31.6,29.77,South,184,15.0,22.0,63,0.00,,RA,0.00,VWS V14.01,2013-11-03 09:01:00,
2013-11-03 03:06:00,43.4,31.7,29.77,SSE,152,24.0,24.0,63,0.00,,RA,0.00,VWS V14.01,2013-11-03 09:06:00,
2013-11-03 03:11:00,43.7,32.0,29.77,SSE,159,12.0,23.0,63,0.00,,RA,0.00,VWS V14.01,2013-11-03 09:11:00,
2013-11-03 03:16:00,43.8,32.0,29.75,SE,140,15.0,22.0,63,0.00,,RA,0.00,VWS V14.01,2013-11-03 09:16:00,
2013-11-03 03:21:00,43.8,32.0,29.75,SSE,168,20.0,20.0,63,0.00,,RA,0.00,VWS V14.01,2013-11-03 09:21:00,
2013-11-03 03:26:00,43.9,32.1,29.75,SSE,155,17.0,20.0,63,0.00,,RA,0.00,VWS V14.01,2013-11-03 09:26:00,
2013-11-03 03:31:00,43.8,32.0,29.75,South,170,14.0,19.0,63,0.00,,RA,0.00,VWS V14.01,2013-11-03 09:31:00,
2013-11-03 03:36:00,43.7,32.0,29.75,South,171,11.0,23.0,63,0.00,,RA,0.00,VWS V14.01,2013-11-03 09:36:00,
2013-11-03 03:41:00,43.6,31.9,29.75,South,175,13.0,22.0,63,0.00,,RA,0.00,VWS V14.01,2013-11-03 09:41:00,
2013-11-03 03:46:00,43.5,31.8,29.74,SE,138,13.0,23.0,63,0.00,,RA,0.00,VWS V14.01,2013-11-03 09:46:00,
2013-11-03 03:51:00,43.3,31.6,29.74,SSE,160,12.0,25.0,63,0.00,,RA,0.00,VWS V14.01,2013-11-03 09:51:00,
2013-11-03 03:56:00,43.2,31.5,29.74,South,169,22.0,22.0,63,0.00,,RA,0.00,VWS V14.01,2013-11-03 09:56:00,
2013-11-03 04:01:00,43.3,31.6,29.74,South,171,15.0,26.0,63,0.00,,RA,0.00,VWS V14.01,2013-11-03 10:01:00,
2013-11-03 04:06:00,43.2,31.5,29.74,South,174,14.0,21.0,63,0.00,,RA,0.00,VWS V14.01,2013-11-03 10:06:00,
2013-11-03 04:11:00,43.1,31.8,29.74,South,177,12.0,22.0,64,0.00,,RA,0.00,VWS V14.01,2013-11-03 10:11:00,
2013-11-03 04:16:00,42.8,31.5,29.74,South,179,14.0,20.0,64,0.00,,RA,0.00,VWS V14.01,2013-11-03 10:16:00,
2013-11-03 04:21:00,42.8,31.5,29.74,South,175,11.0,21.0,64,0.00,,RA,0.00,VWS V14.01,2013-11-03 10:21:00,
2013-11-03 04:26:00,42.6,31.3,29.74,SSE,159,12.0,19.0,64,0.00,,RA,0.00,VWS V14.01,2013-11-03 10:26:00,
2013-11-03 04:31:00,42.5,31.2,29.75,South,176,13.0,17.0,64,0.00,,RA,0.00,VWS V14.01,2013-11-03 10:31:00,
2013-11-03 04:36:00,42.4,31.5,29.75,South,189,15.0,18.0,65,0.00,,RA,0.00,VWS V14.01,2013-11-03 10:36:00,
2013-11-03 04:41:00,42.4,31.5,29.75,South,183,10.0,21.0,65,0.00,,RA,0.00,VWS V14.01,2013-11-03 10:41:00,
2013-11-03 04:46:00,42.3,31.4,29.74,South,180,14.0,20.0,65,0.00,,RA,0.00,VWS V14.01,2013-11-03 10:46:00,
2013-11-03 04:51:00,42.4,31.5,29.74,SSE,167,16.0,23.0,65,0.00,,RA,0.00,VWS V14.01,2013-11-03 10:51:00,
2013-11-03 04:56:00,42.3,31.4,29.74,SSE,167,12.0,16.0,65,0.00,,RA,0.00,VWS V14.01,2013-11-03 10:56:00,
2013-11-03 05:01:00,42.1,31.2,29.73,South,186,17.0,18.0,65,0.00,,RA,0.00,VWS V14.01,2013-11-03 11:01:00,
2013-11-03 05:06:00,42.0,31.1,29.73,SSE,167,9.0,15.0,65,0.00,,RA,0.00,VWS V14.01,2013-11-03 11:06:00,
2013-11-03 05:11:00,41.9,31.0,29.73,SSE,158,10.0,17.0,65,0.00,,RA,0.00,VWS V14.01,2013-11-03 11:11:00,
2013-11-03 05:16:00,41.9,31.0,29.73,SSE,167,9.0,20.0,65,0.00,,RA,0.00,VWS V14.01,2013-11-03 11:16:00,
2013-11-03 05:21:00,41.9,31.0,29.73,SSE,153,12.0,22.0,65,0.00,,RA,0.00,VWS V14.01,2013-11-03 11:21:00,
2013-11-03 05:26:00,41.9,31.0,29.73,South,171,14.0,20.0,65,0.00,,RA,0.00,VWS V14.01,2013-11-03 11:26:00,
2013-11-03 05:31:00,42.0,31.1,29.73,SSE,166,9.0,18.0,65,0.00,,RA,0.00,VWS V14.01,2013-11-03 11:31:00,
2013-11-03 05:36:00,41.9,31.0,29.73,South,182,17.0,19.0,65,0.00,,RA,0.00,VWS V14.01,2013-11-03 11:36:00,
2013-11-03 05:41:00,41.9,31.0,29.73,SSE,159,13.0,17.0,65,0.00,,RA,0.00,VWS V14.01,2013-11-03 11:41:00,
2013-11-03 05:46:00,41.8,30.9,29.72,SE,146,16.0,19.0,65,0.00,,RA,0.00,VWS V14.01,2013-11-03 11:46:00,
2013-11-03 05:51:00,41.9,31.0,29.72,South,186,13.0,20.0,65,0.00,,RA,0.00,VWS V14.01,2013-11-03 11:51:00,
2013-11-03 05:56:00,42.0,31.1,29.72,South,181,12.0,21.0,65,0.00,,RA,0.00,VWS V14.01,2013-11-03 11:56:00,
2013-11-03 06:01:00,42.2,31.3,29.72,South,176,10.0,20.0,65,0.00,,RA,0.00,VWS V14.01,2013-11-03 12:01:00,
2013-11-03 06:06:00,42.3,31.4,29.72,SSE,158,11.0,19.0,65,0.00,,RA,0.00,VWS V14.01,2013-11-03 12:06:00,
2013-11-03 06:11:00,42.2,31.3,29.72,South,179,18.0,22.0,65,0.00,,RA,0.00,VWS V14.01,2013-11-03 12:11:00,
2013-11-03 06:16:00,42.3,31.4,29.72,SSE,161,12.0,21.0,65,0.00,,RA,0.00,VWS V14.01,2013-11-03 12:16:00,
2013-11-03 06:20:00,42.3,31.4,29.72,South,170,16.0,24.0,65,0.00,,RA,0.00,VWS V14.01,2013-11-03 12:20:00,
2013-11-03 06:25:00,42.2,31.3,29.72,SSE,158,13.0,23.0,65,0.00,,RA,0.00,VWS V14.01,2013-11-03 12:25:00,
2013-11-03 06:31:00,42.2,31.3,29.72,SSE,168,12.0,21.0,65,0.00,,RA,0.00,VWS V14.01,2013-11-03 12:31:00,
2013-11-03 06:36:00,42.1,31.2,29.72,SSE,147,13.0,21.0,65,0.00,,RA,0.00,VWS V14.01,2013-11-03 12:36:00,
2013-11-03 06:41:00,42.1,31.2,29.72,South,170,21.0,21.0,65,0.00,,RA,0.00,VWS V14.01,2013-11-03 12:41:00,
2013-11-03 06:46:00,42.1,31.2,29.71,SSE,165,11.0,22.0,65,0.00,,RA,0.00,VWS V14.01,2013-11-03 12:46:00,
2013-11-03 06:51:00,42.1,31.2,29.71,SSE,154,11.0,25.0,65,0.00,,RA,0.00,VWS V14.01,2013-11-03 12:51:00,
2013-11-03 06:55:00,42.0,31.1,29.71,South,175,15.0,20.0,65,0.00,,RA,0.00,VWS V14.01,2013-11-03 12:55:00,
2013-11-03 07:00:00,42.0,31.1,29.71,South,173,18.0,20.0,65,0.00,,RA,0.00,VWS V14.01,2013-11-03 13:00:00,
2013-11-03 07:05:00,42.0,31.1,29.71,SSW,198,15.0,18.0,65,0.00,,RA,0.00,VWS V14.01,2013-11-03 13:05:00,
2013-11-03 07:10:00,42.0,31.1,29.71,South,175,15.0,18.0,65,0.00,,RA,0.00,VWS V14.01,2013-11-03 13:10:00,
2013-11-03 07:15:00,42.0,31.1,29.70,South,175,12.0,21.0,65,0.00,,RA,0.00,VWS V14.01,2013-11-03 13:15:00,
2013-11-03 07:20:00,42.0,31.1,29.70,SSW,196,18.0,21.0,65,0.00,,RA,0.00,VWS V14.01,2013-11-03 13:20:00,
2013-11-03 07:25:00,42.0,31.1,29.70,SE,145,12.0,21.0,65,0.00,,RA,0.00,VWS V14.01,2013-11-03 13:25:00,
2013-11-03 07:30:00,42.0,31.1,29.70,SSE,167,12.0,24.0,65,0.00,,RA,0.00,VWS V14.01,2013-11-03 13:30:00,
2013-11-03 07:35:00,42.1,31.2,29.70,SSE,152,14.0,20.0,65,0.00,,RA,0.00,VWS V14.01,2013-11-03 13:35:00,
2013-11-03 07:40:00,42.3,31.4,29.70,South,171,15.0,23.0,65,0.00,,RA,0.00,VWS V14.01,2013-11-03 13:40:00,
2013-11-03 07:45:00,42.5,31.6,29.70,SSE,168,14.0,22.0,65,0.00,,RA,0.00,VWS V14.01,2013-11-03 13:45:00,
2013-11-03 07:50:00,42.6,31.7,29.70,South,177,17.0,20.0,65,0.00,,RA,0.00,VWS V14.01,2013-11-03 13:50:00,
2013-11-03 07:55:00,42.7,31.8,29.70,South,183,15.0,24.0,65,0.00,,RA,0.00,VWS V14.01,2013-11-03 13:55:00,
2013-11-03 08:00:00,42.9,31.6,29.69,SSW,194,23.0,25.0,64,0.00,,RA,0.00,VWS V14.01,2013-11-03 14:00:00,
2013-11-03 08:05:00,43.0,31.7,29.69,South,170,17.0,23.0,64,0.00,,RA,0.00,VWS V14.01,2013-11-03 14:05:00,
2013-11-03 08:10:00,43.2,31.9,29.69,South,178,24.0,24.0,64,0.00,,RA,0.00,VWS V14.01,2013-11-03 14:10:00,
2013-11-03 08:15:00,43.2,31.9,29.70,SSW,192,16.0,25.0,64,0.00,,RA,0.00,VWS V14.01,2013-11-03 14:15:00,
2013-11-03 08:20:00,43.2,31.9,29.70,SSE,157,17.0,24.0,64,0.00,,RA,0.00,VWS V14.01,2013-11-03 14:20:00,
2013-11-03 08:25:00,43.3,32.0,29.70,SSE,168,13.0,22.0,64,0.00,,RA,0.00,VWS V14.01,2013-11-03 14:25:00,
2013-11-03 08:30:00,43.5,32.2,29.70,SSE,168,14.0,25.0,64,0.00,,RA,0.00,VWS V14.01,2013-11-03 14:30:00,
2013-11-03 08:35:00,43.8,32.4,29.70,South,183,17.0,25.0,64,0.00,,RA,0.00,VWS V14.01,2013-11-03 14:35:00,
2013-11-03 08:40:00,44.0,32.6,29.70,South,180,20.0,23.0,64,0.00,,RA,0.00,VWS V14.01,2013-11-03 14:40:00,
2013-11-03 08:45:00,44.4,32.6,29.69,South,188,20.0,22.0,63,0.00,,RA,0.00,VWS V14.01,2013-11-03 14:45:00,
2013-11-03 08:50:00,44.8,33.0,29.69,South,182,13.0,23.0,63,0.00,,RA,0.00,VWS V14.01,2013-11-03 14:50:00,
2013-11-03 08:55:00,45.1,33.3,29.69,South,187,12.0,24.0,63,0.00,,RA,0.00,VWS V14.01,2013-11-03 14:55:00,
2013-11-03 09:00:00,45.4,33.2,29.69,South,190,23.0,28.0,62,0.00,,RA,0.00,VWS V14.01,2013-11-03 15:00:00,
2013-11-03 09:05:00,45.6,33.3,29.69,South,182,18.0,27.0,62,0.00,,RA,0.00,VWS V14.01,2013-11-03 15:05:00,
2013-11-03 09:10:00,45.7,33.4,29.69,South,178,14.0,28.0,62,0.00,,RA,0.00,VWS V14.01,2013-11-03 15:10:00,
2013-11-03 09:15:00,45.8,33.5,29.67,SSE,165,15.0,22.0,62,0.00,,RA,0.00,VWS V14.01,2013-11-03 15:15:00,
2013-11-03 09:20:00,45.6,33.3,29.67,South,187,17.0,27.0,62,0.00,,RA,0.00,VWS V14.01,2013-11-03 15:20:00,
2013-11-03 09:25:00,45.3,33.1,29.67,South,173,19.0,28.0,62,0.00,,RA,0.00,VWS V14.01,2013-11-03 15:25:00,
2013-11-03 09:30:00,45.5,33.7,29.67,SSE,163,14.0,29.0,63,0.00,,RA,0.00,VWS V14.01,2013-11-03 15:30:00,
2013-11-03 09:35:00,46.0,33.7,29.67,South,179,14.0,25.0,62,0.00,,RA,0.00,VWS V14.01,2013-11-03 15:35:00,
2013-11-03 09:40:00,46.6,34.3,29.67,South,171,22.0,26.0,62,0.00,,RA,0.00,VWS V14.01,2013-11-03 15:40:00,
2013-11-03 09:45:00,47.2,34.5,29.67,South,171,20.0,27.0,61,0.00,,RA,0.00,VWS V14.01,2013-11-03 15:45:00,
2013-11-03 09:50:00,47.6,34.8,29.67,SSE,161,12.0,28.0,61,0.00,,RA,0.00,VWS V14.01,2013-11-03 15:50:00,
2013-11-03 09:55:00,48.2,35.0,29.67,South,173,17.0,27.0,60,0.00,,RA,0.00,VWS V14.01,2013-11-03 15:55:00,
2013-11-03 10:00:00,48.4,34.8,29.64,South,184,21.0,29.0,59,0.00,,RA,0.00,VWS V14.01,2013-11-03 16:00:00,
2013-11-03 10:05:00,48.0,34.4,29.64,SSW,196,24.0,33.0,59,0.00,,RA,0.00,VWS V14.01,2013-11-03 16:05:00,
2013-11-03 10:10:00,47.9,34.7,29.64,South,175,19.0,29.0,60,0.00,,RA,0.00,VWS V14.01,2013-11-03 16:10:00,
2013-11-03 10:15:00,48.4,35.2,29.62,South,176,23.0,31.0,60,0.00,,RA,0.00,VWS V14.01,2013-11-03 16:15:00,
2013-11-03 10:20:00,49.2,35.9,29.62,South,188,22.0,31.0,60,0.00,,RA,0.00,VWS V14.01,2013-11-03 16:20:00,
2013-11-03 10:25:00,50.4,36.2,29.62,South,183,20.0,29.0,58,0.00,,RA,0.00,VWS V14.01,2013-11-03 16:25:00,
2013-11-03 10:30:00,50.8,36.6,29.62,SSW,202,22.0,29.0,58,0.00,,RA,0.00,VWS V14.01,2013-11-03 16:30:00,
2013-11-03 10:35:00,51.3,36.6,29.62,South,171,17.0,23.0,57,0.00,,RA,0.00,VWS V14.01,2013-11-03 16:35:00,
2013-11-03 10:40:00,51.3,36.2,29.62,South,173,20.0,28.0,56,0.00,,RA,0.00,VWS V14.01,2013-11-03 16:40:00,
2013-11-03 10:45:00,51.0,35.9,29.62,SSW,205,20.0,31.0,56,0.00,,RA,0.00,VWS V14.01,2013-11-03 16:45:00,
2013-11-03 10:50:00,51.2,36.1,29.62,South,187,21.0,28.0,56,0.00,,RA,0.00,VWS V14.01,2013-11-03 16:50:00,
2013-11-03 10:55:00,51.4,36.7,29.62,SSW,196,17.0,25.0,57,0.00,,RA,0.00,VWS V14.01,2013-11-03 16:55:00,
2013-11-03 11:01:00,51.6,36.9,29.61,SSE,150,23.0,23.0,57,0.00,,RA,0.00,VWS V14.01,2013-11-03 17:01:00,
2013-11-03 11:06:00,52.2,36.1,29.61,South,171,21.0,33.0,54,0.00,,RA,0.00,VWS V14.01,2013-11-03 17:06:00,
2013-11-03 11:11:00,52.1,36.0,29.61,South,170,27.0,31.0,54,0.00,,RA,0.00,VWS V14.01,2013-11-03 17:11:00,
2013-11-03 11:16:00,51.9,35.8,29.61,South,184,14.0,30.0,54,0.00,,RA,0.00,VWS V14.01,2013-11-03 17:16:00,
2013-11-03 11:21:00,51.4,35.8,29.62,South,179,20.0,29.0,55,0.00,,RA,0.00,VWS V14.01,2013-11-03 17:21:00,
2013-11-03 11:26:00,51.3,36.6,29.62,South,185,18.0,22.0,57,0.00,,RA,0.00,VWS V14.01,2013-11-03 17:26:00,
2013-11-03 11:31:00,51.4,36.2,29.61,South,179,21.0,25.0,56,0.00,,RA,0.00,VWS V14.01,2013-11-03 17:31:00,
2013-11-03 11:36:00,52.0,36.8,29.61,South,188,24.0,26.0,56,0.00,,RA,0.00,VWS V14.01,2013-11-03 17:36:00,
2013-11-03 11:41:00,52.9,37.2,29.61,SSE,161,18.0,29.0,55,0.00,,RA,0.00,VWS V14.01,2013-11-03 17:41:00,
2013-11-03 11:46:00,53.3,37.1,29.60,South,186,17.0,24.0,54,0.00,,RA,0.00,VWS V14.01,2013-11-03 17:46:00,
2013-11-03 11:51:00,53.7,37.0,29.60,South,176,20.0,24.0,53,0.00,,RA,0.00,VWS V14.01,2013-11-03 17:51:00,
2013-11-03 11:56:00,53.5,36.8,29.60,South,179,24.0,25.0,53,0.00,,RA,0.00,VWS V14.01,2013-11-03 17:56:00,
2013-11-03 12:01:00,53.4,36.7,29.59,South,172,12.0,22.0,53,0.00,,RA,0.00,VWS V14.01,2013-11-03 18:01:00,
2013-11-03 12:05:00,53.4,36.7,29.59,South,173,13.0,22.0,53,0.00,,RA,0.00,VWS V14.01,2013-11-03 18:05:00,
2013-11-03 12:10:00,53.5,36.8,29.59,South,190,17.0,22.0,53,0.00,,RA,0.00,VWS V14.01,2013-11-03 18:10:00,
2013-11-03 12:15:00,53.6,37.4,29.58,South,189,26.0,26.0,54,0.00,,RA,0.00,VWS V14.01,2013-11-03 18:15:00,
2013-11-03 12:20:00,53.6,36.9,29.58,South,182,25.0,25.0,53,0.00,,RA,0.00,VWS V14.01,2013-11-03 18:20:00,
2013-11-03 12:25:00,53.9,37.7,29.58,South,184,20.0,24.0,54,0.00,,RA,0.00,VWS V14.01,2013-11-03 18:25:00,
2013-11-03 12:30:00,54.6,37.8,29.57,SSW,196,18.0,26.0,53,0.00,,RA,0.00,VWS V14.01,2013-11-03 18:30:00,
2013-11-03 12:35:00,54.9,37.6,29.57,South,180,25.0,26.0,52,0.00,,RA,0.00,VWS V14.01,2013-11-03 18:35:00,
2013-11-03 12:40:00,55.0,37.2,29.57,South,182,26.0,28.0,51,0.00,,RA,0.00,VWS V14.01,2013-11-03 18:40:00,
2013-11-03 12:45:00,55.0,36.7,29.57,South,179,17.0,31.0,50,0.00,,RA,0.00,VWS V14.01,2013-11-03 18:45:00,
2013-11-03 12:50:00,55.2,36.9,29.57,SSW,194,17.0,32.0,50,0.00,,RA,0.00,VWS V14.01,2013-11-03 18:50:00,
2013-11-03 12:55:00,55.7,37.9,29.57,South,182,18.0,26.0,51,0.00,,RA,0.00,VWS V14.01,2013-11-03 18:55:00,
2013-11-03 13:00:00,56.5,37.6,29.56,SSW,193,18.0,32.0,49,0.00,,RA,0.00,VWS V14.01,2013-11-03 19:00:00,
2013-11-03 13:05:00,57.4,37.9,29.56,South,171,18.0,28.0,48,0.00,,RA,0.00,VWS V14.01,2013-11-03 19:05:00,
2013-11-03 13:10:00,57.6,38.1,29.56,SSW,210,20.0,23.0,48,0.00,,RA,0.00,VWS V14.01,2013-11-03 19:10:00,
2013-11-03 13:15:00,57.7,38.2,29.54,South,180,17.0,30.0,48,0.00,,RA,0.00,VWS V14.01,2013-11-03 19:15:00,
2013-11-03 13:20:00,57.7,37.6,29.54,South,177,12.0,30.0,47,0.00,,RA,0.00,VWS V14.01,2013-11-03 19:20:00,
2013-11-03 13:25:00,57.6,37.5,29.54,SSW,195,16.0,33.0,47,0.00,,RA,0.00,VWS V14.01,2013-11-03 19:25:00,
2013-11-03 13:30:00,57.3,37.3,29.54,SSW,200,20.0,28.0,47,0.00,,RA,0.00,VWS V14.01,2013-11-03 19:30:00,
2013-11-03 13:35:00,57.0,37.5,29.54,SSE,164,16.0,20.0,48,0.00,,RA,0.00,VWS V14.01,2013-11-03 19:35:00,
2013-11-03 13:40:00,57.2,37.7,29.54,South,185,21.0,25.0,48,0.00,,RA,0.00,VWS V14.01,2013-11-03 19:40:00,
2013-11-03 13:45:00,57.3,37.8,29.54,SSW,192,12.0,27.0,48,0.00,,RA,0.00,VWS V14.01,2013-11-03 19:45:00,
2013-11-03 13:50:00,57.2,37.7,29.54,South,179,12.0,26.0,48,0.00,,RA,0.00,VWS V14.01,2013-11-03 19:50:00,
2013-11-03 13:55:00,57.2,37.7,29.54,SSE,167,16.0,23.0,48,0.00,,RA,0.00,VWS V14.01,2013-11-03 19:55:00,
2013-11-03 14:00:00,57.0,37.0,29.54,SSW,197,20.0,31.0,47,0.00,,RA,0.00,VWS V14.01,2013-11-03 20:00:00,
2013-11-03 14:05:00,56.8,37.3,29.53,SSW,194,21.0,28.0,48,0.00,,RA,0.00,VWS V14.01,2013-11-03 20:05:00,
2013-11-03 14:10:00,56.9,37.4,29.53,South,187,22.0,23.0,48,0.00,,RA,0.00,VWS V14.01,2013-11-03 20:10:00,
2013-11-03 14:16:00,57.1,38.1,29.52,South,179,13.0,21.0,49,0.00,,RA,0.00,VWS V14.01,2013-11-03 20:16:00,
2013-11-03 14:20:00,57.2,37.7,29.52,South,170,13.0,25.0,48,0.00,,RA,0.00,VWS V14.01,2013-11-03 20:20:00,
2013-11-03 14:25:00,57.3,37.8,29.52,South,181,14.0,23.0,48,0.00,,RA,0.00,VWS V14.01,2013-11-03 20:25:00,
2013-11-03 14:30:00,57.6,38.6,29.51,South,184,21.0,24.0,49,0.00,,RA,0.00,VWS V14.01,2013-11-03 20:30:00,
2013-11-03 14:35:00,57.6,38.1,29.51,South,171,17.0,25.0,48,0.00,,RA,0.00,VWS V14.01,2013-11-03 20:35:00,
2013-11-03 14:40:00,57.6,38.1,29.51,South,187,19.0,27.0,48,0.00,,RA,0.00,VWS V14.01,2013-11-03 20:40:00,
2013-11-03 14:45:00,57.7,38.2,29.50,South,171,17.0,24.0,48,0.00,,RA,0.00,VWS V14.01,2013-11-03 20:45:00,
2013-11-03 14:50:00,58.1,38.0,29.50,South,173,12.0,26.0,47,0.00,,RA,0.00,VWS V14.01,2013-11-03 20:50:00,
2013-11-03 14:55:00,58.4,38.3,29.50,SSE,163,19.0,24.0,47,0.00,,RA,0.00,VWS V14.01,2013-11-03 20:55:00,
2013-11-03 15:00:00,58.9,38.2,29.50,SSW,192,30.0,33.0,46,0.00,,RA,0.00,VWS V14.01,2013-11-03 21:00:00,
2013-11-03 15:05:00,59.0,38.3,29.50,South,173,19.0,33.0,46,0.00,,RA,0.00,VWS V14.01,2013-11-03 21:05:00,
2013-11-03 15:10:00,58.7,38.0,29.50,SSW,196,16.0,29.0,46,0.00,,RA,0.00,VWS V14.01,2013-11-03 21:10:00,
2013-11-03 15:15:00,59.0,38.3,29.49,SSE,163,16.0,33.0,46,0.00,,RA,0.00,VWS V14.01,2013-11-03 21:15:00,
2013-11-03 15:20:00,59.2,38.5,29.49,South,180,26.0,29.0,46,0.00,,RA,0.00,VWS V14.01,2013-11-03 21:20:00,
2013-11-03 15:25:00,59.0,38.3,29.49,SSE,165,14.0,26.0,46,0.00,,RA,0.00,VWS V14.01,2013-11-03 21:25:00,
2013-11-03 15:30:00,59.0,37.7,29.48,South,173,19.0,30.0,45,0.00,,RA,0.00,VWS V14.01,2013-11-03 21:30:00,
2013-11-03 15:35:00,59.0,38.3,29.48,South,181,16.0,27.0,46,0.00,,RA,0.00,VWS V14.01,2013-11-03 21:35:00,
2013-11-03 15:40:00,58.6,37.9,29.48,South,182,16.0,24.0,46,0.00,,RA,0.00,VWS V14.01,2013-11-03 21:40:00,
2013-11-03 15:45:00,58.2,38.1,29.50,South,180,18.0,25.0,47,0.00,,RA,0.00,VWS V14.01,2013-11-03 21:45:00,
2013-11-03 15:50:00,58.0,37.9,29.50,SSW,198,18.0,32.0,47,0.00,,RA,0.00,VWS V14.01,2013-11-03 21:50:00,
2013-11-03 15:55:00,58.4,38.3,29.50,SSW,202,16.0,25.0,47,0.00,,RA,0.00,VWS V14.01,2013-11-03 21:55:00,
2013-11-03 16:00:00,58.6,38.5,29.50,SSE,167,8.0,20.0,47,0.00,,RA,0.00,VWS V14.01,2013-11-03 22:00:00,
2013-11-03 16:05:00,58.4,38.8,29.50,South,175,16.0,20.0,48,0.00,,RA,0.00,VWS V14.01,2013-11-03 22:05:00,
2013-11-03 16:10:00,58.2,38.6,29.50,South,186,17.0,18.0,48,0.00,,RA,0.00,VWS V14.01,2013-11-03 22:10:00,
2013-11-03 16:15:00,58.0,38.4,29.51,South,188,14.0,18.0,48,0.00,,RA,0.00,VWS V14.01,2013-11-03 22:15:00,
2013-11-03 16:20:00,57.8,38.8,29.51,South,178,9.0,15.0,49,0.00,,RA,0.00,VWS V14.01,2013-11-03 22:20:00,
2013-11-03 16:25:00,57.8,38.8,29.51,South,173,9.0,14.0,49,0.00,,RA,0.00,VWS V14.01,2013-11-03 22:25:00,
2013-11-03 16:30:00,58.0,39.0,29.52,South,176,13.0,24.0,49,0.00,,RA,0.00,VWS V14.01,2013-11-03 22:30:00,
2013-11-03 16:35:00,58.3,38.7,29.52,South,188,21.0,27.0,48,0.00,,RA,0.00,VWS V14.01,2013-11-03 22:35:00,
2013-11-03 16:40:00,58.2,38.1,29.52,South,188,11.0,25.0,47,0.00,,RA,0.00,VWS V14.01,2013-11-03 22:40:00,
2013-11-03 16:45:00,58.0,37.9,29.52,South,190,13.0,23.0,47,0.00,,RA,0.00,VWS V14.01,2013-11-03 22:45:00,
2013-11-03 16:50:00,57.7,38.2,29.52,South,190,14.0,24.0,48,0.00,,RA,0.00,VWS V14.01,2013-11-03 22:50:00,
2013-11-03 16:55:00,57.3,37.8,29.52,South,173,10.0,22.0,48,0.00,,RA,0.00,VWS V14.01,2013-11-03 22:55:00,
2013-11-03 17:00:00,57.0,38.0,29.53,South,182,16.0,21.0,49,0.00,,RA,0.00,VWS V14.01,2013-11-03 23:00:00,
2013-11-03 17:05:00,56.8,37.9,29.53,South,187,13.0,22.0,49,0.00,,RA,0.00,VWS V14.01,2013-11-03 23:05:00,
2013-11-03 17:10:00,56.5,38.1,29.53,SSW,192,16.0,18.0,50,0.00,,RA,0.00,VWS V14.01,2013-11-03 23:10:00,
2013-11-03 17:15:00,56.4,38.0,29.53,SSW,192,10.0,17.0,50,0.00,,RA,0.00,VWS V14.01,2013-11-03 23:15:00,
2013-11-03 17:20:00,56.3,37.9,29.53,South,174,11.0,18.0,50,0.00,,RA,0.00,VWS V14.01,2013-11-03 23:20:00,
2013-11-03 17:25:00,56.2,37.8,29.53,South,184,13.0,23.0,50,0.00,,RA,0.00,VWS V14.01,2013-11-03 23:25:00,
2013-11-03 17:30:00,56.0,38.2,29.53,South,180,12.0,20.0,51,0.00,,RA,0.00,VWS V14.01,2013-11-03 23:30:00,
2013-11-03 17:35:00,55.7,38.4,29.53,South,169,15.0,20.0,52,0.00,,RA,0.00,VWS V14.01,2013-11-03 23:35:00,
2013-11-03 17:40:00,55.5,38.2,29.53,South,175,9.0,18.0,52,0.00,,RA,0.00,VWS V14.01,2013-11-03 23:40:00,
2013-11-03 17:45:00,55.1,38.3,29.53,South,172,8.0,15.0,53,0.00,,RA,0.00,VWS V14.01,2013-11-03 23:45:00,
2013-11-03 17:50:00,54.8,38.5,29.53,South,182,11.0,11.0,54,0.00,,RA,0.00,VWS V14.01,2013-11-03 23:50:00,
2013-11-03 17:55:00,54.3,38.5,29.53,South,175,6.0,11.0,55,0.00,,RA,0.00,VWS V14.01,2013-11-03 23:55:00,
2013-11-03 18:00:00,53.7,38.4,29.54,SSE,157,6.0,11.0,56,0.00,,RA,0.00,VWS V14.01,2013-11-04 00:00:00,
2013-11-03 18:05:00,53.3,38.5,29.54,South,171,9.0,10.0,57,0.00,,RA,0.00,VWS V14.01,2013-11-04 00:05:00,
2013-11-03 18:10:00,52.9,38.5,29.54,South,179,5.0,10.0,58,0.00,,RA,0.00,VWS V14.01,2013-11-04 00:10:00,
2013-11-03 18:15:00,52.7,38.8,29.56,South,172,5.0,9.0,59,0.00,,RA,0.00,VWS V14.01,2013-11-04 00:15:00,
2013-11-03 18:20:00,52.6,38.7,29.56,South,172,5.0,9.0,59,0.00,,RA,0.00,VWS V14.01,2013-11-04 00:20:00,
2013-11-03 18:25:00,52.4,38.9,29.56,South,173,6.0,7.0,60,0.00,,RA,0.00,VWS V14.01,2013-11-04 00:25:00,
2013-11-03 18:30:00,52.1,38.7,29.57,SSE,168,4.0,7.0,60,0.00,,RA,0.00,VWS V14.01,2013-11-04 00:30:00,
2013-11-03 18:35:00,51.8,38.8,29.57,SSE,167,6.0,9.0,61,0.00,,RA,0.00,VWS V14.01,2013-11-04 00:35:00,
2013-11-03 18:40:00,51.7,38.7,29.57,South,180,10.0,11.0,61,0.00,,RA,0.00,VWS V14.01,2013-11-04 00:40:00,
2013-11-03 18:45:00,51.8,38.8,29.57,SSE,161,8.0,13.0,61,0.00,,RA,0.00,VWS V14.01,2013-11-04 00:45:00,
2013-11-03 18:50:00,52.0,39.0,29.57,South,177,7.0,11.0,61,0.00,,RA,0.00,VWS V14.01,2013-11-04 00:50:00,
2013-11-03 18:55:00,52.1,39.1,29.57,South,184,12.0,13.0,61,0.00,,RA,0.00,VWS V14.01,2013-11-04 00:55:00,
2013-11-03 19:00:00,52.2,39.2,29.57,South,171,7.0,12.0,61,0.00,,RA,0.00,VWS V14.01,2013-11-04 01:00:00,
2013-11-03 19:05:00,52.1,39.1,29.57,South,175,6.0,10.0,61,0.00,,RA,0.00,VWS V14.01,2013-11-04 01:05:00,
2013-11-03 19:10:00,51.8,38.8,29.57,SSE,154,7.0,9.0,61,0.00,,RA,0.00,VWS V14.01,2013-11-04 01:10:00,
2013-11-03 19:15:00,51.6,38.6,29.57,SSE,162,6.0,12.0,61,0.00,,RA,0.00,VWS V14.01,2013-11-04 01:15:00,
2013-11-03 19:20:00,51.5,38.9,29.57,SSE,153,6.0,11.0,62,0.00,,RA,0.00,VWS V14.01,2013-11-04 01:20:00,
2013-11-03 19:25:00,51.3,38.7,29.57,SSE,155,6.0,9.0,62,0.00,,RA,0.00,VWS V14.01,2013-11-04 01:25:00,
2013-11-03 19:30:00,51.0,38.5,29.57,SSE,161,6.0,9.0,62,0.00,,RA,0.00,VWS V14.01,2013-11-04 01:30:00,
2013-11-03 19:35:00,50.6,38.1,29.57,SSE,164,5.0,10.0,62,0.00,,RA,0.00,VWS V14.01,2013-11-04 01:35:00,
2013-11-03 19:40:00,50.2,38.1,29.57,SSE,163,5.0,5.0,63,0.00,,RA,0.00,VWS V14.01,2013-11-04 01:40:00,
2013-11-03 19:45:00,49.9,37.8,29.58,SSE,163,5.0,5.0,63,0.00,,RA,0.00,VWS V14.01,2013-11-04 01:45:00,
2013-11-03 19:50:00,49.6,37.5,29.58,SSE,163,4.0,7.0,63,0.00,,RA,0.00,VWS V14.01,2013-11-04 01:50:00,
2013-11-03 19:55:00,49.4,37.8,29.58,SSE,163,5.0,6.0,64,0.00,,RA,0.00,VWS V14.01,2013-11-04 01:55:00,
2013-11-03 20:00:00,49.1,37.5,29.58,SSE,163,3.0,5.0,64,0.00,,RA,0.00,VWS V14.01,2013-11-04 02:00:00,
2013-11-03 20:05:00,48.7,37.1,29.58,SSE,163,4.0,4.0,64,0.00,,RA,0.00,VWS V14.01,2013-11-04 02:05:00,
2013-11-03 20:10:00,48.2,37.0,29.58,SSE,163,3.0,5.0,65,0.00,,RA,0.00,VWS V14.01,2013-11-04 02:10:00,
2013-11-03 20:15:00,48.0,36.8,29.58,SSE,163,2.0,4.0,65,0.00,,RA,0.00,VWS V14.01,2013-11-04 02:15:00,
2013-11-03 20:20:00,47.8,36.2,29.58,SSE,163,2.0,4.0,64,0.00,,RA,0.00,VWS V14.01,2013-11-04 02:20:00,
2013-11-03 20:25:00,47.4,36.2,29.58,SSE,163,2.0,3.0,65,0.00,,RA,0.00,VWS V14.01,2013-11-04 02:25:00,
2013-11-03 20:30:00,47.0,35.9,29.58,SSE,163,0.0,2.0,65,0.00,,RA,0.00,VWS V14.01,2013-11-04 02:30:00,
2013-11-03 20:35:00,46.5,35.4,29.59,SSE,163,2.0,2.0,65,0.00,,RA,0.00,VWS V14.01,2013-11-04 02:35:00,
2013-11-03 20:40:00,46.1,35.0,29.59,SSE,163,0.0,1.0,65,0.00,,RA,0.00,VWS V14.01,2013-11-04 02:40:00,
2013-11-03 20:45:00,45.6,34.5,29.59,SSE,163,1.0,1.0,65,0.00,,RA,0.00,VWS V14.01,2013-11-04 02:45:00,
2013-11-03 20:50:00,45.1,34.0,29.59,SSE,163,0.0,0.0,65,0.00,,RA,0.00,VWS V14.01,2013-11-04 02:50:00,
2013-11-03 20:55:00,45.0,33.6,29.59,SSE,163,0.0,0.0,64,0.00,,RA,0.00,VWS V14.01,2013-11-04 02:55:00,
2013-11-03 21:00:00,44.7,33.3,29.59,SSE,163,0.0,0.0,64,0.00,,RA,0.00,VWS V14.01,2013-11-04 03:00:00,
2013-11-03 21:06:00,44.6,32.8,29.60,SSE,163,0.0,0.0,63,0.00,,RA,0.00,VWS V14.01,2013-11-04 03:06:00,
2013-11-03 21:11:00,44.5,33.1,29.60,SSE,163,0.0,0.0,64,0.00,,RA,0.00,VWS V14.01,2013-11-04 03:11:00,
2013-11-03 21:16:00,44.3,32.5,29.60,SSE,163,0.0,0.0,63,0.00,,RA,0.00,VWS V14.01,2013-11-04 03:16:00,
2013-11-03 21:21:00,44.0,32.2,29.60,SSE,163,1.0,1.0,63,0.00,,RA,0.00,VWS V14.01,2013-11-04 03:21:00,
2013-11-03 21:26:00,44.0,32.2,29.60,SSE,163,1.0,2.0,63,0.00,,RA,0.00,VWS V14.01,2013-11-04 03:26:00,
2013-11-03 21:31:00,43.7,31.5,29.61,SSE,163,1.0,2.0,62,0.00,,RA,0.00,VWS V14.01,2013-11-04 03:31:00,
2013-11-03 21:36:00,43.3,31.2,29.61,SSE,163,1.0,1.0,62,0.00,,RA,0.00,VWS V14.01,2013-11-04 03:36:00,
2013-11-03 21:41:00,43.0,30.9,29.61,SSE,163,1.0,2.0,62,0.00,,RA,0.00,VWS V14.01,2013-11-04 03:41:00,
2013-11-03 21:46:00,42.4,30.3,29.61,SSE,163,0.0,3.0,62,0.00,,RA,0.00,VWS V14.01,2013-11-04 03:46:00,
2013-11-03 21:51:00,41.9,29.5,29.61,SSE,163,0.0,1.0,61,0.00,,RA,0.00,VWS V14.01,2013-11-04 03:51:00,
2013-11-03 21:56:00,41.5,28.7,29.61,SSE,163,0.0,0.0,60,0.00,,RA,0.00,VWS V14.01,2013-11-04 03:56:00,
2013-11-03 22:01:00,41.2,28.4,29.62,SSE,163,0.0,0.0,60,0.00,,RA,0.00,VWS V14.01,2013-11-04 04:01:00,
2013-11-03 22:06:00,40.9,28.1,29.62,SSE,163,0.0,0.0,60,0.00,,RA,0.00,VWS V14.01,2013-11-04 04:06:00,
2013-11-03 22:11:00,40.3,27.5,29.62,SSE,163,1.0,1.0,60,0.00,,RA,0.00,VWS V14.01,2013-11-04 04:11:00,
2013-11-03 22:16:00,39.4,26.7,29.62,SSE,163,1.0,2.0,60,0.00,,RA,0.00,VWS V14.01,2013-11-04 04:16:00,
2013-11-03 22:21:00,38.8,25.3,29.62,SSE,163,1.0,2.0,58,0.00,,RA,0.00,VWS V14.01,2013-11-04 04:21:00,
2013-11-03 22:26:00,38.4,24.1,29.62,SSE,163,0.0,2.0,56,0.00,,RA,0.00,VWS V14.01,2013-11-04 04:26:00,
2013-11-03 22:31:00,38.1,23.4,29.63,SSE,163,0.0,1.0,55,0.00,,RA,0.00,VWS V14.01,2013-11-04 04:31:00,
2013-11-03 22:35:00,37.9,22.8,29.63,SSE,163,0.0,1.0,54,0.00,,RA,0.00,VWS V14.01,2013-11-04 04:35:00,
2013-11-03 22:40:00,37.7,22.1,29.63,SSE,163,0.0,0.0,53,0.00,,RA,0.00,VWS V14.01,2013-11-04 04:40:00,
2013-11-03 22:45:00,37.7,21.7,29.63,SSE,163,0.0,0.0,52,0.00,,RA,0.00,VWS V14.01,2013-11-04 04:45:00,
2013-11-03 22:50:00,37.5,21.0,29.63,SSE,163,0.0,0.0,51,0.00,,RA,0.00,VWS V14.01,2013-11-04 04:50:00,
2013-11-03 22:55:00,37.3,20.9,29.63,SSE,163,0.0,0.0,51,0.00,,RA,0.00,VWS V14.01,2013-11-04 04:55:00,
2013-11-03 23:00:00,37.0,20.6,29.64,SSE,163,4.0,4.0,51,0.00,,RA,0.00,VWS V14.01,2013-11-04 05:00:00,
2013-11-03 23:01:00,37.0,20.6,29.64,SSE,163,4.0,4.0,51,0.00,,RA,0.00,VWS V14.01,2013-11-04 05:01:00,
2013-11-03 23:06:00,36.5,20.1,29.64,SSE,163,2.0,3.0,51,0.00,,RA,0.00,VWS V14.01,2013-11-04 05:06:00,
2013-11-03 23:11:00,36.4,18.6,29.64,SSE,163,2.0,2.0,48,0.00,,RA,0.00,VWS V14.01,2013-11-04 05:11:00,
2013-11-03 23:16:00,36.3,17.5,29.64,SSE,163,0.0,2.0,46,0.00,,RA,0.00,VWS V14.01,2013-11-04 05:16:00,
2013-11-03 23:21:00,36.5,16.7,29.64,SSE,163,0.0,1.0,44,0.00,,RA,0.00,VWS V14.01,2013-11-04 05:21:00,
2013-11-03 23:26:00,36.4,16.6,29.64,SSE,163,0.0,0.0,44,0.00,,RA,0.00,VWS V14.01,2013-11-04 05:26:00,
2013-11-03 23:31:00,36.3,16.5,29.65,SSE,163,0.0,0.0,44,0.00,,RA,0.00,VWS V14.01,2013-11-04 05:31:00,
2013-11-03 23:36:00,36.1,16.3,29.65,SSE,163,1.0,2.0,44,0.00,,RA,0.00,VWS V14.01,2013-11-04 05:36:00,
2013-11-03 23:41:00,35.7,16.5,29.65,SSE,163,1.0,1.0,45,0.00,,RA,0.00,VWS V14.01,2013-11-04 05:41:00,
2013-11-03 23:46:00,35.3,16.1,29.65,SSE,163,2.0,2.0,45,0.00,,RA,0.00,VWS V14.01,2013-11-04 05:46:00,
2013-11-03 23:51:00,35.0,15.8,29.65,SSE,163,0.0,2.0,45,0.00,,RA,0.00,VWS V14.01,2013-11-04 05:51:00,
2013-11-03 23:56:00,34.4,15.3,29.65,SSE,163,0.0,5.0,45,0.00,,RA,0.00,VWS V14.01,2013-11-04 05:56:00,